sensor_id;sensor_type;location;lat;lon;timestamp;pressure;altitude;pressure_sealevel;temperature;humidity
23427;BME280;41148;45.420;10.952;2023-04-07T00:02:26;100842.09;;;8.67;48.43
23427;BME280;41148;45.420;10.952;2023-04-07T00:04:54;100842.06;;;8.70;48.59
23427;BME280;41148;45.420;10.952;2023-04-07T00:07:24;100840.56;;;8.53;49.55
23427;BME280;41148;45.420;10.952;2023-04-07T00:09:52;100832.84;;;8.40;50.27
23427;BME280;41148;45.420;10.952;2023-04-07T00:12:19;100834.44;;;8.50;50.35
23427;BME280;41148;45.420;10.952;2023-04-07T00:14:47;100824.50;;;8.61;49.33
23427;BME280;41148;45.420;10.952;2023-04-07T00:17:14;100829.84;;;8.59;49.81
23427;BME280;41148;45.420;10.952;2023-04-07T00:19:41;100830.00;;;8.49;50.17
23427;BME280;41148;45.420;10.952;2023-04-07T00:22:10;100833.34;;;8.62;49.77
23427;BME280;41148;45.420;10.952;2023-04-07T00:24:37;100823.81;;;8.48;50.10
23427;BME280;41148;45.420;10.952;2023-04-07T00:27:04;100821.19;;;8.47;48.79
23427;BME280;41148;45.420;10.952;2023-04-07T00:29:32;100822.69;;;8.63;49.03
23427;BME280;41148;45.420;10.952;2023-04-07T00:31:59;100825.59;;;8.49;50.05
23427;BME280;41148;45.420;10.952;2023-04-07T00:34:26;100821.72;;;8.69;50.44
23427;BME280;41148;45.420;10.952;2023-04-07T00:36:54;100823.69;;;8.56;48.91
23427;BME280;41148;45.420;10.952;2023-04-07T00:39:21;100827.03;;;8.67;49.19
23427;BME280;41148;45.420;10.952;2023-04-07T00:44:49;100830.31;;;8.81;48.55
23427;BME280;41148;45.420;10.952;2023-04-07T00:47:16;100821.66;;;8.72;48.66
23427;BME280;41148;45.420;10.952;2023-04-07T00:49:43;100818.19;;;8.67;49.02
23427;BME280;41148;45.420;10.952;2023-04-07T00:52:11;100821.88;;;8.58;49.49
23427;BME280;41148;45.420;10.952;2023-04-07T00:54:41;100813.88;;;8.61;49.41
23427;BME280;41148;45.420;10.952;2023-04-07T00:57:08;100807.53;;;8.70;49.11
23427;BME280;41148;45.420;10.952;2023-04-07T00:59:36;100828.59;;;8.79;48.74
23427;BME280;41148;45.420;10.952;2023-04-07T01:02:15;100814.66;;;8.66;49.10
23427;BME280;41148;45.420;10.952;2023-04-07T01:04:48;100814.91;;;8.52;49.04
23427;BME280;41148;45.420;10.952;2023-04-07T01:07:26;100808.81;;;8.46;49.38
23427;BME280;41148;45.420;10.952;2023-04-07T01:10:06;100802.56;;;8.50;50.02
23427;BME280;41148;45.420;10.952;2023-04-07T01:12:56;100802.66;;;8.44;50.19
23427;BME280;41148;45.420;10.952;2023-04-07T01:15:29;100801.91;;;8.36;50.25
23427;BME280;41148;45.420;10.952;2023-04-07T01:18:20;100791.81;;;8.56;49.76
23427;BME280;41148;45.420;10.952;2023-04-07T01:20:50;100801.75;;;8.45;49.83
23427;BME280;41148;45.420;10.952;2023-04-07T01:23:35;100793.09;;;8.33;49.68
23427;BME280;41148;45.420;10.952;2023-04-07T01:26:17;100779.75;;;8.40;49.19
23427;BME280;41148;45.420;10.952;2023-04-07T01:29:03;100804.34;;;8.48;49.46
23427;BME280;41148;45.420;10.952;2023-04-07T01:31:35;100807.09;;;8.43;49.65
23427;BME280;41148;45.420;10.952;2023-04-07T01:34:04;100789.59;;;8.31;49.64
23427;BME280;41148;45.420;10.952;2023-04-07T01:36:32;100797.53;;;8.35;50.04
23427;BME280;41148;45.420;10.952;2023-04-07T01:39:01;100809.00;;;8.35;49.59
23427;BME280;41148;45.420;10.952;2023-04-07T01:41:29;100786.03;;;8.32;49.64
23427;BME280;41148;45.420;10.952;2023-04-07T01:43:58;100806.25;;;8.41;49.66
23427;BME280;41148;45.420;10.952;2023-04-07T01:46:27;100803.44;;;8.50;49.18
23427;BME280;41148;45.420;10.952;2023-04-07T01:48:55;100803.47;;;8.47;49.24
23427;BME280;41148;45.420;10.952;2023-04-07T01:51:24;100795.53;;;8.46;49.03
23427;BME280;41148;45.420;10.952;2023-04-07T01:53:53;100797.28;;;8.47;49.39
23427;BME280;41148;45.420;10.952;2023-04-07T01:56:22;100797.09;;;8.57;49.29
23427;BME280;41148;45.420;10.952;2023-04-07T01:58:52;100798.69;;;8.69;48.89
23427;BME280;41148;45.420;10.952;2023-04-07T02:01:22;100797.97;;;8.59;49.28
23427;BME280;41148;45.420;10.952;2023-04-07T02:04:01;100797.78;;;8.70;49.42
23427;BME280;41148;45.420;10.952;2023-04-07T02:06:34;100796.06;;;8.66;49.36
23427;BME280;41148;45.420;10.952;2023-04-07T02:09:06;100795.25;;;8.63;49.42
23427;BME280;41148;45.420;10.952;2023-04-07T02:11:37;100788.31;;;8.54;49.58
23427;BME280;41148;45.420;10.952;2023-04-07T02:14:08;100784.00;;;8.48;49.53
23427;BME280;41148;45.420;10.952;2023-04-07T02:16:56;100790.16;;;8.49;49.68
23427;BME280;41148;45.420;10.952;2023-04-07T02:19:23;100784.97;;;8.44;49.79
23427;BME280;41148;45.420;10.952;2023-04-07T02:21:51;100787.59;;;8.46;50.08
23427;BME280;41148;45.420;10.952;2023-04-07T02:24:19;100787.31;;;8.61;49.52
23427;BME280;41148;45.420;10.952;2023-04-07T02:26:48;100786.06;;;8.80;49.05
23427;BME280;41148;45.420;10.952;2023-04-07T02:29:15;100787.13;;;8.72;49.08
23427;BME280;41148;45.420;10.952;2023-04-07T02:31:42;100781.00;;;8.67;49.13
23427;BME280;41148;45.420;10.952;2023-04-07T02:34:10;100784.75;;;8.55;50.00
23427;BME280;41148;45.420;10.952;2023-04-07T02:36:38;100786.34;;;8.65;50.10
23427;BME280;41148;45.420;10.952;2023-04-07T02:39:07;100782.66;;;8.74;50.05
23427;BME280;41148;45.420;10.952;2023-04-07T02:41:35;100786.28;;;8.68;50.53
23427;BME280;41148;45.420;10.952;2023-04-07T02:44:03;100781.34;;;8.50;49.81
23427;BME280;41148;45.420;10.952;2023-04-07T02:46:32;100796.41;;;8.46;50.29
23427;BME280;41148;45.420;10.952;2023-04-07T02:49:00;100792.06;;;8.44;50.48
23427;BME280;41148;45.420;10.952;2023-04-07T02:51:27;100770.88;;;8.39;51.60
23427;BME280;41148;45.420;10.952;2023-04-07T02:53:55;100779.63;;;8.46;51.65
23427;BME280;41148;45.420;10.952;2023-04-07T02:56:23;100786.66;;;8.50;51.04
23427;BME280;41148;45.420;10.952;2023-04-07T02:58:50;100790.25;;;8.46;50.48
23427;BME280;41148;45.420;10.952;2023-04-07T03:01:18;100790.16;;;8.49;50.13
23427;BME280;41148;45.420;10.952;2023-04-07T03:03:46;100787.66;;;8.43;50.96
23427;BME280;41148;45.420;10.952;2023-04-07T03:06:21;100781.72;;;8.25;51.24
23427;BME280;41148;45.420;10.952;2023-04-07T03:09:00;100774.88;;;8.12;51.78
23427;BME280;41148;45.420;10.952;2023-04-07T03:11:27;100784.09;;;7.87;52.42
23427;BME280;41148;45.420;10.952;2023-04-07T03:13:57;100784.31;;;7.74;53.46
23427;BME280;41148;45.420;10.952;2023-04-07T03:16:26;100781.75;;;7.67;53.88
23427;BME280;41148;45.420;10.952;2023-04-07T03:19:00;100775.56;;;7.66;53.76
23427;BME280;41148;45.420;10.952;2023-04-07T03:21:31;100786.25;;;7.60;54.20
23427;BME280;41148;45.420;10.952;2023-04-07T03:23:58;100782.56;;;7.73;53.99
23427;BME280;41148;45.420;10.952;2023-04-07T03:26:26;100787.84;;;7.73;54.76
23427;BME280;41148;45.420;10.952;2023-04-07T03:28:54;100785.50;;;7.54;54.27
23427;BME280;41148;45.420;10.952;2023-04-07T03:31:22;100786.22;;;7.62;53.92
23427;BME280;41148;45.420;10.952;2023-04-07T03:33:52;100779.94;;;7.69;53.68
23427;BME280;41148;45.420;10.952;2023-04-07T03:36:21;100785.16;;;7.77;53.31
23427;BME280;41148;45.420;10.952;2023-04-07T03:38:49;100777.41;;;7.61;53.23
23427;BME280;41148;45.420;10.952;2023-04-07T03:41:18;100774.75;;;7.61;53.32
23427;BME280;41148;45.420;10.952;2023-04-07T03:43:46;100777.47;;;7.57;52.72
23427;BME280;41148;45.420;10.952;2023-04-07T03:46:14;100772.97;;;7.63;52.51
23427;BME280;41148;45.420;10.952;2023-04-07T03:48:43;100767.63;;;7.66;52.31
23427;BME280;41148;45.420;10.952;2023-04-07T03:51:11;100763.25;;;7.64;51.95
23427;BME280;41148;45.420;10.952;2023-04-07T03:53:39;100780.00;;;7.66;51.88
23427;BME280;41148;45.420;10.952;2023-04-07T03:56:25;100786.16;;;7.68;52.40
23427;BME280;41148;45.420;10.952;2023-04-07T03:58:56;100773.72;;;7.71;53.27
23427;BME280;41148;45.420;10.952;2023-04-07T04:01:34;100766.63;;;7.72;53.22
23427;BME280;41148;45.420;10.952;2023-04-07T04:04:14;100770.91;;;7.84;52.74
23427;BME280;41148;45.420;10.952;2023-04-07T04:06:42;100774.59;;;7.72;53.21
23427;BME280;41148;45.420;10.952;2023-04-07T04:09:32;100777.38;;;7.64;52.99
23427;BME280;41148;45.420;10.952;2023-04-07T04:12:00;100772.34;;;7.43;54.08
23427;BME280;41148;45.420;10.952;2023-04-07T04:14:29;100776.06;;;7.31;54.27
23427;BME280;41148;45.420;10.952;2023-04-07T04:17:00;100781.38;;;7.30;54.75
23427;BME280;41148;45.420;10.952;2023-04-07T04:19:36;100774.28;;;7.32;55.15
23427;BME280;41148;45.420;10.952;2023-04-07T04:22:13;100766.28;;;7.36;54.50
23427;BME280;41148;45.420;10.952;2023-04-07T04:24:48;100765.47;;;7.30;54.81
23427;BME280;41148;45.420;10.952;2023-04-07T04:27:16;100760.41;;;7.14;55.40
23427;BME280;41148;45.420;10.952;2023-04-07T04:29:46;100776.03;;;7.34;54.89
23427;BME280;41148;45.420;10.952;2023-04-07T04:32:17;100767.97;;;7.42;54.80
23427;BME280;41148;45.420;10.952;2023-04-07T04:34:45;100766.19;;;7.42;54.19
23427;BME280;41148;45.420;10.952;2023-04-07T04:37:13;100771.28;;;7.58;54.12
23427;BME280;41148;45.420;10.952;2023-04-07T04:39:44;100776.59;;;7.58;54.16
23427;BME280;41148;45.420;10.952;2023-04-07T04:42:13;100767.81;;;7.53;54.42
23427;BME280;41148;45.420;10.952;2023-04-07T04:44:41;100780.97;;;7.59;54.44
23427;BME280;41148;45.420;10.952;2023-04-07T04:47:08;100782.88;;;7.49;54.82
23427;BME280;41148;45.420;10.952;2023-04-07T04:49:38;100767.84;;;7.50;54.75
23427;BME280;41148;45.420;10.952;2023-04-07T04:52:05;100781.88;;;7.58;54.66
23427;BME280;41148;45.420;10.952;2023-04-07T04:54:39;100773.19;;;7.48;54.76
23427;BME280;41148;45.420;10.952;2023-04-07T04:57:08;100778.00;;;7.18;55.75
23427;BME280;41148;45.420;10.952;2023-04-07T04:59:36;100780.56;;;7.23;56.22
23427;BME280;41148;45.420;10.952;2023-04-07T05:02:04;100769.97;;;7.25;55.50
23427;BME280;41148;45.420;10.952;2023-04-07T05:04:32;100791.94;;;7.33;55.38
23427;BME280;41148;45.420;10.952;2023-04-07T05:07:26;100789.28;;;7.34;55.37
23427;BME280;41148;45.420;10.952;2023-04-07T05:09:55;100784.94;;;7.29;56.73
23427;BME280;41148;45.420;10.952;2023-04-07T05:12:23;100784.88;;;7.32;57.39
23427;BME280;41148;45.420;10.952;2023-04-07T05:14:57;100775.41;;;7.12;57.49
23427;BME280;41148;45.420;10.952;2023-04-07T05:17:24;100782.53;;;7.09;57.96
23427;BME280;41148;45.420;10.952;2023-04-07T05:19:52;100781.81;;;6.96;58.11
23427;BME280;41148;45.420;10.952;2023-04-07T05:22:31;100775.84;;;6.77;57.93
23427;BME280;41148;45.420;10.952;2023-04-07T05:24:59;100776.56;;;6.92;57.76
23427;BME280;41148;45.420;10.952;2023-04-07T05:27:26;100769.53;;;6.89;57.06
23427;BME280;41148;45.420;10.952;2023-04-07T05:29:59;100757.97;;;6.95;56.18
23427;BME280;41148;45.420;10.952;2023-04-07T05:32:31;100778.97;;;7.11;55.53
23427;BME280;41148;45.420;10.952;2023-04-07T05:35:05;100777.97;;;7.20;55.96
23427;BME280;41148;45.420;10.952;2023-04-07T05:37:35;100791.13;;;7.28;55.45
23427;BME280;41148;45.420;10.952;2023-04-07T05:40:05;100774.41;;;7.23;55.48
23427;BME280;41148;45.420;10.952;2023-04-07T05:42:32;100778.84;;;7.21;55.40
23427;BME280;41148;45.420;10.952;2023-04-07T05:45:01;100765.47;;;7.31;55.23
23427;BME280;41148;45.420;10.952;2023-04-07T05:47:29;100762.03;;;7.25;54.45
23427;BME280;41148;45.420;10.952;2023-04-07T05:49:57;100762.84;;;7.30;53.59
23427;BME280;41148;45.420;10.952;2023-04-07T05:52:25;100760.97;;;7.36;52.89
23427;BME280;41148;45.420;10.952;2023-04-07T05:55:03;100749.34;;;7.46;53.96
23427;BME280;41148;45.420;10.952;2023-04-07T05:57:31;100755.31;;;7.61;54.49
23427;BME280;41148;45.420;10.952;2023-04-07T06:00:01;100765.66;;;7.79;54.81
23427;BME280;41148;45.420;10.952;2023-04-07T06:02:30;100756.69;;;7.88;54.19
23427;BME280;41148;45.420;10.952;2023-04-07T06:04:58;100755.78;;;7.89;54.67
23427;BME280;41148;45.420;10.952;2023-04-07T06:07:26;100762.69;;;7.99;54.44
23427;BME280;41148;45.420;10.952;2023-04-07T06:09:53;100752.22;;;7.90;54.04
23427;BME280;41148;45.420;10.952;2023-04-07T06:12:21;100777.44;;;8.17;53.25
23427;BME280;41148;45.420;10.952;2023-04-07T06:14:53;100768.56;;;8.18;53.73
23427;BME280;41148;45.420;10.952;2023-04-07T06:17:22;100750.00;;;8.18;53.84
23427;BME280;41148;45.420;10.952;2023-04-07T06:19:50;100737.41;;;8.29;53.09
23427;BME280;41148;45.420;10.952;2023-04-07T06:22:17;100753.00;;;8.49;52.64
23427;BME280;41148;45.420;10.952;2023-04-07T06:24:45;100746.69;;;8.56;52.86
23427;BME280;41148;45.420;10.952;2023-04-07T06:27:12;100741.81;;;8.78;51.72
23427;BME280;41148;45.420;10.952;2023-04-07T06:29:40;100736.16;;;8.96;50.99
23427;BME280;41148;45.420;10.952;2023-04-07T06:32:07;100736.06;;;9.41;49.28
23427;BME280;41148;45.420;10.952;2023-04-07T06:34:35;100737.56;;;9.53;47.80
23427;BME280;41148;45.420;10.952;2023-04-07T06:37:03;100737.22;;;9.68;48.11
23427;BME280;41148;45.420;10.952;2023-04-07T06:39:32;100746.47;;;9.89;47.14
23427;BME280;41148;45.420;10.952;2023-04-07T06:41:59;100748.75;;;10.06;46.36
23427;BME280;41148;45.420;10.952;2023-04-07T06:44:28;100745.66;;;10.22;45.97
23427;BME280;41148;45.420;10.952;2023-04-07T06:46:55;100751.88;;;10.57;44.49
23427;BME280;41148;45.420;10.952;2023-04-07T06:49:22;100742.41;;;10.78;42.48
23427;BME280;41148;45.420;10.952;2023-04-07T06:51:50;100758.75;;;10.97;42.34
23427;BME280;41148;45.420;10.952;2023-04-07T06:54:18;100748.50;;;11.14;42.22
23427;BME280;41148;45.420;10.952;2023-04-07T06:56:45;100749.56;;;11.66;41.21
23427;BME280;41148;45.420;10.952;2023-04-07T06:59:13;100749.84;;;12.13;38.83
23427;BME280;41148;45.420;10.952;2023-04-07T07:01:40;100723.66;;;12.24;37.70
23427;BME280;41148;45.420;10.952;2023-04-07T07:04:08;100748.06;;;12.40;38.05
23427;BME280;41148;45.420;10.952;2023-04-07T07:06:36;100739.84;;;12.46;36.54
23427;BME280;41148;45.420;10.952;2023-04-07T07:09:03;100746.81;;;12.50;35.70
23427;BME280;41148;45.420;10.952;2023-04-07T07:11:31;100752.59;;;12.38;35.37
23427;BME280;41148;45.420;10.952;2023-04-07T07:13:58;100743.38;;;12.46;35.62
23427;BME280;41148;45.420;10.952;2023-04-07T07:16:25;100736.50;;;12.39;35.62
23427;BME280;41148;45.420;10.952;2023-04-07T07:18:53;100738.25;;;12.40;35.77
23427;BME280;41148;45.420;10.952;2023-04-07T07:21:21;100737.75;;;12.54;35.86
23427;BME280;41148;45.420;10.952;2023-04-07T07:23:48;100749.84;;;12.64;35.90
23427;BME280;41148;45.420;10.952;2023-04-07T07:26:16;100744.13;;;12.50;35.80
23427;BME280;41148;45.420;10.952;2023-04-07T07:28:43;100747.00;;;12.45;35.91
23427;BME280;41148;45.420;10.952;2023-04-07T07:31:11;100740.25;;;12.83;35.79
23427;BME280;41148;45.420;10.952;2023-04-07T07:33:40;100728.47;;;12.89;35.83
23427;BME280;41148;45.420;10.952;2023-04-07T07:36:12;100720.09;;;12.98;35.71
23427;BME280;41148;45.420;10.952;2023-04-07T07:38:40;100737.22;;;12.94;35.61
23427;BME280;41148;45.420;10.952;2023-04-07T07:41:07;100740.66;;;13.21;34.88
23427;BME280;41148;45.420;10.952;2023-04-07T07:43:35;100733.66;;;13.40;34.36
23427;BME280;41148;45.420;10.952;2023-04-07T07:46:03;100746.81;;;13.92;33.52
23427;BME280;41148;45.420;10.952;2023-04-07T07:48:31;100739.75;;;14.11;33.49
23427;BME280;41148;45.420;10.952;2023-04-07T07:50:58;100728.91;;;14.14;33.19
23427;BME280;41148;45.420;10.952;2023-04-07T07:53:26;100731.19;;;14.45;33.15
23427;BME280;41148;45.420;10.952;2023-04-07T07:55:53;100737.56;;;14.21;32.05
23427;BME280;41148;45.420;10.952;2023-04-07T07:58:22;100745.34;;;14.49;32.19
23427;BME280;41148;45.420;10.952;2023-04-07T08:00:49;100739.44;;;13.97;33.44
23427;BME280;41148;45.420;10.952;2023-04-07T08:03:17;100742.41;;;14.94;32.81
23427;BME280;41148;45.420;10.952;2023-04-07T08:05:47;100746.38;;;15.64;31.46
23427;BME280;41148;45.420;10.952;2023-04-07T08:08:15;100744.97;;;16.81;29.57
23427;BME280;41148;45.420;10.952;2023-04-07T08:10:43;100748.94;;;17.07;28.33
23427;BME280;41148;45.420;10.952;2023-04-07T08:13:11;100735.19;;;16.96;29.26
23427;BME280;41148;45.420;10.952;2023-04-07T08:15:39;100752.47;;;16.74;30.19
23427;BME280;41148;45.420;10.952;2023-04-07T08:18:07;100734.72;;;15.44;31.04
23427;BME280;41148;45.420;10.952;2023-04-07T08:20:34;100743.03;;;15.20;31.57
23427;BME280;41148;45.420;10.952;2023-04-07T08:23:02;100734.25;;;15.74;30.87
23427;BME280;41148;45.420;10.952;2023-04-07T08:25:29;100739.75;;;16.07;30.50
23427;BME280;41148;45.420;10.952;2023-04-07T08:27:57;100746.47;;;15.80;31.15
23427;BME280;41148;45.420;10.952;2023-04-07T08:30:24;100743.69;;;15.06;31.74
23427;BME280;41148;45.420;10.952;2023-04-07T08:32:52;100736.09;;;14.95;32.01
23427;BME280;41148;45.420;10.952;2023-04-07T08:35:19;100747.16;;;14.69;32.28
23427;BME280;41148;45.420;10.952;2023-04-07T08:37:47;100760.19;;;14.14;33.63
23427;BME280;41148;45.420;10.952;2023-04-07T08:40:15;100749.59;;;13.89;35.02
23427;BME280;41148;45.420;10.952;2023-04-07T08:42:47;100760.66;;;13.80;35.23
23427;BME280;41148;45.420;10.952;2023-04-07T08:45:16;100756.31;;;13.77;35.40
23427;BME280;41148;45.420;10.952;2023-04-07T08:47:45;100745.31;;;13.85;35.78
23427;BME280;41148;45.420;10.952;2023-04-07T08:50:16;100752.66;;;14.01;35.16
23427;BME280;41148;45.420;10.952;2023-04-07T08:52:54;100747.22;;;14.25;35.07
23427;BME280;41148;45.420;10.952;2023-04-07T08:55:22;100750.34;;;14.14;35.77
23427;BME280;41148;45.420;10.952;2023-04-07T08:57:50;100751.66;;;14.04;34.51
23427;BME280;41148;45.420;10.952;2023-04-07T09:00:19;100745.59;;;13.99;34.17
23427;BME280;41148;45.420;10.952;2023-04-07T09:02:47;100736.66;;;14.00;34.59
23427;BME280;41148;45.420;10.952;2023-04-07T09:05:16;100745.78;;;14.16;34.10
23427;BME280;41148;45.420;10.952;2023-04-07T09:07:44;100748.75;;;14.30;34.80
23427;BME280;41148;45.420;10.952;2023-04-07T09:10:11;100743.84;;;14.62;34.25
23427;BME280;41148;45.420;10.952;2023-04-07T09:12:39;100737.88;;;14.96;34.01
23427;BME280;41148;45.420;10.952;2023-04-07T09:15:07;100722.63;;;15.73;31.57
23427;BME280;41148;45.420;10.952;2023-04-07T09:17:35;100729.78;;;16.09;31.08
23427;BME280;41148;45.420;10.952;2023-04-07T09:20:03;100716.31;;;16.63;30.64
23427;BME280;41148;45.420;10.952;2023-04-07T09:22:40;100719.25;;;16.75;30.58
23427;BME280;41148;45.420;10.952;2023-04-07T09:25:23;100716.06;;;16.15;31.84
23427;BME280;41148;45.420;10.952;2023-04-07T09:28:00;100715.50;;;15.35;32.89
23427;BME280;41148;45.420;10.952;2023-04-07T09:30:30;100702.34;;;15.10;32.28
23427;BME280;41148;45.420;10.952;2023-04-07T09:32:59;100708.66;;;15.09;33.06
23427;BME280;41148;45.420;10.952;2023-04-07T09:35:27;100705.63;;;15.16;32.86
23427;BME280;41148;45.420;10.952;2023-04-07T09:38:07;100712.59;;;15.21;32.08
23427;BME280;41148;45.420;10.952;2023-04-07T09:40:35;100710.28;;;14.93;31.99
23427;BME280;41148;45.420;10.952;2023-04-07T09:43:04;100706.41;;;15.18;32.45
23427;BME280;41148;45.420;10.952;2023-04-07T09:45:32;100711.78;;;15.18;33.03
23427;BME280;41148;45.420;10.952;2023-04-07T09:48:21;100704.88;;;15.13;32.83
23427;BME280;41148;45.420;10.952;2023-04-07T09:50:48;100701.34;;;15.12;33.40
23427;BME280;41148;45.420;10.952;2023-04-07T09:53:17;100700.75;;;15.06;33.18
23427;BME280;41148;45.420;10.952;2023-04-07T09:55:46;100699.75;;;15.27;32.80
23427;BME280;41148;45.420;10.952;2023-04-07T09:58:14;100701.69;;;15.24;33.31
23427;BME280;41148;45.420;10.952;2023-04-07T10:00:43;100701.22;;;15.15;33.32
23427;BME280;41148;45.420;10.952;2023-04-07T10:03:11;100694.38;;;15.08;32.97
23427;BME280;41148;45.420;10.952;2023-04-07T10:05:39;100685.38;;;15.28;33.21
23427;BME280;41148;45.420;10.952;2023-04-07T10:08:08;100685.81;;;15.19;32.14
23427;BME280;41148;45.420;10.952;2023-04-07T10:10:40;100689.81;;;15.10;31.79
23427;BME280;41148;45.420;10.952;2023-04-07T10:13:08;100690.06;;;15.04;31.80
23427;BME280;41148;45.420;10.952;2023-04-07T10:15:36;100686.69;;;15.01;32.15
23427;BME280;41148;45.420;10.952;2023-04-07T10:18:06;100687.69;;;14.98;32.56
23427;BME280;41148;45.420;10.952;2023-04-07T10:20:37;100680.41;;;14.81;32.75
23427;BME280;41148;45.420;10.952;2023-04-07T10:23:13;100680.34;;;14.83;32.74
23427;BME280;41148;45.420;10.952;2023-04-07T10:25:42;100681.16;;;14.65;31.21
23427;BME280;41148;45.420;10.952;2023-04-07T10:28:12;100682.41;;;14.76;32.05
23427;BME280;41148;45.420;10.952;2023-04-07T10:30:43;100676.19;;;14.76;32.09
23427;BME280;41148;45.420;10.952;2023-04-07T10:33:11;100679.88;;;14.73;32.44
23427;BME280;41148;45.420;10.952;2023-04-07T10:36:04;100667.06;;;14.80;32.31
23427;BME280;41148;45.420;10.952;2023-04-07T10:38:32;100667.50;;;14.71;32.22
23427;BME280;41148;45.420;10.952;2023-04-07T10:41:32;100675.91;;;14.82;32.27
23427;BME280;41148;45.420;10.952;2023-04-07T10:44:04;100673.25;;;14.82;31.59
23427;BME280;41148;45.420;10.952;2023-04-07T10:49:12;100668.97;;;14.78;31.41
23427;BME280;41148;45.420;10.952;2023-04-07T10:51:42;100660.97;;;14.76;31.62
23427;BME280;41148;45.420;10.952;2023-04-07T10:54:20;100664.09;;;14.86;31.35
23427;BME280;41148;45.420;10.952;2023-04-07T10:59:29;100657.63;;;14.71;31.59
23427;BME280;41148;45.420;10.952;2023-04-07T11:04:45;100653.28;;;14.69;32.43
23427;BME280;41148;45.420;10.952;2023-04-07T11:07:14;100654.25;;;14.68;32.30
23427;BME280;41148;45.420;10.952;2023-04-07T11:09:42;100661.88;;;14.56;33.01
23427;BME280;41148;45.420;10.952;2023-04-07T11:12:23;100646.31;;;14.65;32.82
23427;BME280;41148;45.420;10.952;2023-04-07T11:14:50;100649.44;;;14.74;32.55
23427;BME280;41148;45.420;10.952;2023-04-07T11:17:18;100648.56;;;14.74;32.52
23427;BME280;41148;45.420;10.952;2023-04-07T11:19:50;100642.34;;;14.73;32.94
23427;BME280;41148;45.420;10.952;2023-04-07T11:22:18;100635.75;;;14.80;32.78
23427;BME280;41148;45.420;10.952;2023-04-07T11:24:56;100634.78;;;14.63;32.66
23427;BME280;41148;45.420;10.952;2023-04-07T11:27:23;100639.69;;;14.92;32.74
23427;BME280;41148;45.420;10.952;2023-04-07T11:29:51;100644.47;;;15.04;32.13
23427;BME280;41148;45.420;10.952;2023-04-07T11:32:22;100643.22;;;14.93;31.87
23427;BME280;41148;45.420;10.952;2023-04-07T11:34:56;100641.16;;;14.99;32.07
23427;BME280;41148;45.420;10.952;2023-04-07T11:37:25;100638.97;;;15.07;31.80
23427;BME280;41148;45.420;10.952;2023-04-07T11:39:56;100635.09;;;14.94;31.89
23427;BME280;41148;45.420;10.952;2023-04-07T11:42:37;100634.97;;;14.78;32.43
23427;BME280;41148;45.420;10.952;2023-04-07T11:45:15;100629.81;;;14.93;33.05
23427;BME280;41148;45.420;10.952;2023-04-07T11:47:42;100627.81;;;14.98;34.23
23427;BME280;41148;45.420;10.952;2023-04-07T11:50:10;100632.50;;;15.11;34.59
23427;BME280;41148;45.420;10.952;2023-04-07T11:52:45;100631.78;;;15.08;34.29
23427;BME280;41148;45.420;10.952;2023-04-07T11:55:20;100625.41;;;15.10;33.64
23427;BME280;41148;45.420;10.952;2023-04-07T11:57:49;100626.13;;;15.14;33.94
23427;BME280;41148;45.420;10.952;2023-04-07T12:00:20;100615.75;;;15.25;33.53
23427;BME280;41148;45.420;10.952;2023-04-07T12:02:47;100624.91;;;15.02;33.42
23427;BME280;41148;45.420;10.952;2023-04-07T12:05:15;100613.53;;;15.16;33.12
23427;BME280;41148;45.420;10.952;2023-04-07T12:07:52;100625.81;;;14.82;34.34
23427;BME280;41148;45.420;10.952;2023-04-07T12:10:21;100615.03;;;14.84;34.29
23427;BME280;41148;45.420;10.952;2023-04-07T12:12:49;100618.22;;;15.11;33.64
23427;BME280;41148;45.420;10.952;2023-04-07T12:15:17;100616.91;;;15.20;33.15
23427;BME280;41148;45.420;10.952;2023-04-07T12:17:46;100619.16;;;15.29;33.22
23427;BME280;41148;45.420;10.952;2023-04-07T12:20:14;100621.03;;;15.45;33.38
23427;BME280;41148;45.420;10.952;2023-04-07T12:22:42;100616.53;;;15.65;33.44
23427;BME280;41148;45.420;10.952;2023-04-07T12:25:10;100617.06;;;15.71;33.27
23427;BME280;41148;45.420;10.952;2023-04-07T12:27:37;100612.16;;;15.62;33.24
23427;BME280;41148;45.420;10.952;2023-04-07T12:30:10;100607.34;;;15.69;32.66
23427;BME280;41148;45.420;10.952;2023-04-07T12:32:39;100605.53;;;15.69;33.53
23427;BME280;41148;45.420;10.952;2023-04-07T12:35:07;100605.03;;;15.61;33.24
23427;BME280;41148;45.420;10.952;2023-04-07T12:37:35;100606.84;;;15.61;32.62
23427;BME280;41148;45.420;10.952;2023-04-07T12:40:03;100612.22;;;15.61;32.90
23427;BME280;41148;45.420;10.952;2023-04-07T12:42:31;100607.19;;;15.36;33.09
23427;BME280;41148;45.420;10.952;2023-04-07T12:45:02;100605.72;;;15.48;33.55
23427;BME280;41148;45.420;10.952;2023-04-07T12:47:30;100600.94;;;15.35;33.35
23427;BME280;41148;45.420;10.952;2023-04-07T12:49:58;100590.91;;;15.39;33.16
23427;BME280;41148;45.420;10.952;2023-04-07T12:52:26;100587.06;;;15.08;33.10
23427;BME280;41148;45.420;10.952;2023-04-07T12:54:53;100596.41;;;15.18;33.86
23427;BME280;41148;45.420;10.952;2023-04-07T12:57:21;100591.31;;;15.12;33.53
23427;BME280;41148;45.420;10.952;2023-04-07T12:59:48;100582.31;;;15.13;32.70
23427;BME280;41148;45.420;10.952;2023-04-07T13:02:16;100590.78;;;15.23;32.81
23427;BME280;41148;45.420;10.952;2023-04-07T13:04:45;100582.09;;;15.18;33.30
23427;BME280;41148;45.420;10.952;2023-04-07T13:07:13;100577.19;;;14.90;33.57
23427;BME280;41148;45.420;10.952;2023-04-07T13:09:41;100585.41;;;15.06;33.31
23427;BME280;41148;45.420;10.952;2023-04-07T13:12:12;100579.00;;;15.08;33.28